Time;durP1;ratioP1;P1;durP2;ratioP2;P2;SDS_P1;SDS_P2;PMS_P1;PMS_P2;Temp;Humidity;BMP_temperature;BMP_pressure;BME280_temperature;BME280_humidity;BME280_pressure;Samples;Min_cycle;Max_cycle;Signal;HPM_P1;HPM_P2
2022/03/20 00:00:31;;;;;;;;;;;4.90;99.90;;;;;;5097203;28;20084;-82
2022/03/20 00:03:16;;;;;;;8.82;5.25;;;4.80;99.90;;;;;;5110652;28;19930;-82
2022/03/20 00:06:00;;;;;;;13.05;6.15;;;4.80;99.90;;;;;;5111044;28;20116;-82
2022/03/20 00:08:44;;;;;;;;;;;4.90;99.90;;;;;;5114605;28;20525;-83
2022/03/20 00:11:28;;;;;;;11.32;5.38;;;4.90;99.90;;;;;;5116024;28;19919;-82
2022/03/20 00:14:12;;;;;;;;;;;5.30;99.90;;;;;;5115941;28;20038;-82
2022/03/20 00:16:56;;;;;;;8.40;5.90;;;4.70;99.90;;;;;;5116154;28;19914;-82
2022/03/20 00:19:41;;;;;;;9.68;5.63;;;4.70;99.90;;;;;;5115193;28;20165;-82
2022/03/20 00:22:26;;;;;;;12.25;6.10;;;5.60;99.90;;;;;;5114423;28;20110;-83
2022/03/20 00:25:11;;;;;;;12.40;7.00;;;4.70;99.90;;;;;;5115407;28;20042;-83
2022/03/20 00:27:56;;;;;;;10.70;6.45;;;4.70;99.90;;;;;;5114920;28;20125;-82
2022/03/20 00:30:41;;;;;;;12.40;6.03;;;4.60;99.90;;;;;;5115870;28;20521;-82
2022/03/20 00:33:25;;;;;;;11.98;6.80;;;4.60;99.90;;;;;;5114307;28;20121;-81
2022/03/20 00:36:10;;;;;;;11.32;5.53;;;4.60;99.90;;;;;;5099857;28;20540;-82
2022/03/20 00:38:53;;;;;;;;;;;4.60;99.90;;;;;;5115138;28;20120;-82
2022/03/20 00:41:38;;;;;;;9.85;5.70;;;4.50;99.90;;;;;;5115861;28;20058;-82
2022/03/20 00:44:22;;;;;;;;;;;4.50;99.90;;;;;;5099963;28;20463;-83
2022/03/20 00:47:06;;;;;;;11.20;6.20;;;4.60;99.90;;;;;;5115784;28;19914;-82
2022/03/20 00:49:51;;;;;;;12.05;6.30;;;4.40;99.90;;;;;;5100116;28;20387;-82
2022/03/20 00:52:35;;;;;;;11.10;5.75;;;5.00;99.90;;;;;;5114873;28;20101;-83
2022/03/20 00:55:20;;;;;;;11.25;5.85;;;4.60;99.90;;;;;;5114836;28;20043;-83
2022/03/20 00:58:04;;;;;;;10.40;5.88;;;4.40;99.90;;;;;;5114450;28;20080;-82
2022/03/20 01:00:50;;;;;;;12.95;6.10;;;4.30;99.90;;;;;;5114594;28;20503;-82
2022/03/20 01:03:35;;;;;;;9.98;6.07;;;4.30;99.90;;;;;;5099811;28;20108;-82
2022/03/20 01:06:21;;;;;;;14.25;5.88;;;4.30;99.90;;;;;;5114725;28;20108;-82
2022/03/20 01:09:05;;;;;;;9.25;6.03;;;4.20;99.90;;;;;;5114159;28;20038;-82
2022/03/20 01:11:50;;;;;;;12.63;6.28;;;4.70;99.90;;;;;;5113932;28;20042;-82
2022/03/20 01:14:35;;;;;;;10.10;6.63;;;4.30;99.90;;;;;;5099047;28;20195;-82
2022/03/20 01:17:21;;;;;;;13.57;7.03;;;4.10;99.90;;;;;;5113258;28;20564;-83
2022/03/20 01:20:08;;;;;;;11.23;6.68;;;4.20;99.90;;;;;;5112709;28;20525;-82
2022/03/20 01:22:53;;;;;;;10.43;6.75;;;4.10;99.90;;;;;;5113821;28;20062;-82
2022/03/20 01:25:36;;;;;;;;;;;4.00;99.90;;;;;;5114672;28;20089;-82
2022/03/20 01:28:23;;;;;;;11.18;4.97;;;4.00;99.90;;;;;;5113167;28;19994;-82
2022/03/20 01:31:10;;;;;;;14.35;8.27;;;4.60;99.90;;;;;;5114727;28;20035;-82
2022/03/20 01:33:55;;;;;;;10.73;6.10;;;4.20;99.90;;;;;;5114624;28;20046;-82
2022/03/20 01:36:39;;;;;;;13.73;6.70;;;4.30;99.90;;;;;;5084589;28;20046;-82
2022/03/20 01:39:23;;;;;;;;;;;3.90;99.90;;;;;;5114307;28;20184;-82
2022/03/20 01:42:07;;;;;;;11.82;6.40;;;3.80;99.90;;;;;;5113530;28;19914;-82
2022/03/20 01:44:52;;;;;;;9.30;6.60;;;3.80;99.90;;;;;;5113189;28;20063;-82
2022/03/20 01:47:36;;;;;;;14.38;7.53;;;3.80;99.90;;;;;;5084023;28;20119;-82
2022/03/20 01:50:23;;;;;;;14.10;6.55;;;3.80;99.90;;;;;;5112663;28;20108;-82
2022/03/20 01:53:08;;;;;;;13.02;6.28;;;3.80;99.90;;;;;;5113277;28;20556;-82
2022/03/20 01:55:53;;;;;;;14.75;6.97;;;3.70;99.90;;;;;;5114063;28;20055;-82
2022/03/20 01:58:38;;;;;;;12.73;6.70;;;3.70;99.90;;;;;;5112502;28;20039;-83
2022/03/20 02:01:22;;;;;;;14.95;6.32;;;3.70;99.90;;;;;;5112396;28;20145;-83
2022/03/20 02:04:06;;;;;;;;;;;3.70;99.90;;;;;;5113428;28;20043;-82
2022/03/20 02:06:50;;;;;;;22.38;7.60;;;4.30;99.90;;;;;;5112735;28;19927;-83
2022/03/20 02:09:36;;;;;;;15.00;7.90;;;3.60;99.90;;;;;;5113289;28;20047;-83
2022/03/20 02:12:21;;;;;;;18.33;7.70;;;3.60;99.90;;;;;;5113254;28;20118;-83
2022/03/20 02:15:09;;;;;;;12.15;7.05;;;3.60;99.90;;;;;;5112789;28;20111;-82
2022/03/20 02:17:56;;;;;;;9.82;6.80;;;3.60;99.90;;;;;;5113865;28;20593;-82
2022/03/20 02:20:40;;;;;;;11.48;7.53;;;3.50;99.90;;;;;;5098009;28;20148;-82
2022/03/20 02:23:25;;;;;;;12.85;6.75;;;3.50;99.90;;;;;;5112898;28;20407;-83
2022/03/20 02:26:09;;;;;;;;;;;3.50;99.90;;;;;;5114129;28;20100;-82
2022/03/20 02:28:54;;;;;;;13.35;6.55;;;3.40;99.90;;;;;;5113704;28;20424;-82
2022/03/20 02:31:37;;;;;;;;;;;4.50;99.90;;;;;;5097632;28;20047;-82
2022/03/20 02:34:22;;;;;;;14.82;7.65;;;3.30;99.90;;;;;;5115216;28;19914;-84
2022/03/20 02:37:06;;;;;;;14.27;7.22;;;3.30;99.90;;;;;;5113544;28;20080;-82
2022/03/20 02:39:56;;;;;;;15.02;7.15;;;3.30;99.90;;;;;;5112304;28;20073;-81
2022/03/20 02:42:42;;;;;;;15.68;8.02;;;3.30;99.90;;;;;;5112666;28;20054;-82
2022/03/20 02:45:29;;;;;;;13.43;8.00;;;3.30;99.90;;;;;;5113089;28;20046;-82
2022/03/20 02:48:15;;;;;;;11.52;7.90;;;3.20;99.90;;;;;;5113519;28;20031;-82
2022/03/20 02:50:59;;;;;;;15.63;9.60;;;3.30;99.90;;;;;;5112695;28;20047;-84
2022/03/20 02:53:43;;;;;;;;;;;3.30;99.90;;;;;;5099739;28;20490;-81
2022/03/20 02:56:28;;;;;;;16.88;7.95;;;3.30;99.90;;;;;;5113457;28;19919;-83
2022/03/20 02:59:12;;;;;;;13.68;7.55;;;3.20;99.90;;;;;;5098574;28;20092;-82
2022/03/20 03:01:57;;;;;;;;;;;3.20;99.90;;;;;;5112191;28;20118;-83
2022/03/20 03:04:42;;;;;;;13.07;8.13;;;3.20;99.90;;;;;;5111254;28;19968;-83
2022/03/20 03:07:31;;;;;;;13.77;8.00;;;3.20;99.90;;;;;;5112410;28;20082;-83
2022/03/20 03:13:18;;;;;;;18.45;8.88;;;4.00;99.90;;;;;;5112047;28;20112;-82
2022/03/20 03:16:05;;;;;;;18.40;9.20;;;4.30;99.90;;;;;;5112935;28;20034;-82
2022/03/20 03:18:49;;;;;;;14.38;8.23;;;3.10;99.90;;;;;;5096646;28;20046;-82
2022/03/20 03:21:33;;;;;;;19.48;9.45;;;3.90;99.90;;;;;;5111037;28;20066;-82
2022/03/20 03:24:18;;;;;;;17.75;9.18;;;3.10;99.90;;;;;;5083040;28;20047;-83
2022/03/20 03:27:03;;;;;;;14.73;8.70;;;3.10;99.90;;;;;;5111680;28;20042;-83
2022/03/20 03:29:47;;;;;;;16.77;8.80;;;3.00;99.90;;;;;;5110904;28;20521;-83
2022/03/20 03:32:32;;;;;;;14.00;9.60;;;3.00;99.90;;;;;;5110905;28;20512;-82
2022/03/20 03:38:35;;;;;;;17.23;9.25;;;2.90;99.90;;;;;;5099886;28;20126;-82
2022/03/20 03:41:20;;;;;;;17.65;8.88;;;3.30;99.90;;;;;;5112568;28;20043;-83
2022/03/20 03:44:05;;;;;;;16.42;9.88;;;3.10;99.90;;;;;;5113828;28;20515;-82
2022/03/20 03:46:50;;;;;;;16.60;9.57;;;2.90;99.90;;;;;;5100834;28;20068;-82
2022/03/20 03:49:34;;;;;;;16.75;9.90;;;2.90;99.90;;;;;;5100858;28;20107;-83
2022/03/20 03:52:19;;;;;;;18.05;9.10;;;4.00;99.90;;;;;;5115650;28;20507;-82
2022/03/20 03:55:04;;;;;;;16.73;9.65;;;3.00;99.90;;;;;;5101201;28;20532;-82
2022/03/20 03:57:51;;;;;;;16.35;9.23;;;2.80;99.90;;;;;;5099120;28;20035;-83
2022/03/20 04:00:35;;;;;;;14.18;8.98;;;3.70;99.90;;;;;;5095418;28;20533;-83
2022/03/20 04:03:19;;;;;;;19.00;9.13;;;2.70;99.90;;;;;;5109547;28;20368;-83
2022/03/20 04:06:04;;;;;;;22.90;10.45;;;3.30;99.90;;;;;;5109483;28;20067;-83
2022/03/20 04:08:49;;;;;;;19.52;10.80;;;2.70;99.90;;;;;;5080008;28;20495;-83
2022/03/20 04:11:33;;;;;;;18.25;9.77;;;2.70;99.90;;;;;;5080608;28;20460;-82
2022/03/20 04:14:17;;;;;;;16.47;10.30;;;2.70;99.90;;;;;;5109145;28;20039;-83
2022/03/20 04:17:05;;;;;;;16.23;10.82;;;2.60;99.90;;;;;;5094830;28;20042;-83
2022/03/20 04:19:49;;;;;;;20.90;10.37;;;2.60;99.90;;;;;;5094088;28;20139;-83
2022/03/20 04:22:37;;;;;;;;;;;2.90;99.90;;;;;;5080628;28;20123;-83
2022/03/20 04:25:21;;;;;;;19.57;10.43;;;2.60;99.90;;;;;;5094436;28;19927;-83
2022/03/20 04:28:05;;;;;;;17.88;10.52;;;2.60;99.90;;;;;;5095461;28;20076;-83
2022/03/20 04:30:50;;;;;;;16.42;10.02;;;2.50;99.90;;;;;;5094796;28;20479;-83
2022/03/20 04:33:34;;;;;;;;;;;2.70;99.90;;;;;;5095841;28;20128;-84
2022/03/20 04:36:21;;;;;;;22.35;10.68;;;2.70;99.90;;;;;;5094439;28;19961;-83
2022/03/20 04:39:06;;;;;;;20.03;10.57;;;2.90;99.90;;;;;;5095359;28;20039;-83
2022/03/20 04:41:50;;;;;;;20.35;12.32;;;2.40;99.90;;;;;;5093656;28;20065;-83
2022/03/20 04:44:39;;;;;;;18.17;10.25;;;2.40;99.90;;;;;;5094156;28;20043;-83
2022/03/20 04:59:36;;;;;;;25.35;13.07;;;2.30;99.90;;;;;;5094830;28;20051;-83
2022/03/20 05:02:20;;;;;;;20.33;11.77;;;2.30;99.90;;;;;;5093792;28;20047;-83
2022/03/20 05:05:05;;;;;;;20.40;12.10;;;2.30;99.90;;;;;;5094164;28;20097;-83
2022/03/20 05:07:49;;;;;;;19.43;10.80;;;2.20;99.90;;;;;;5094215;28;20141;-83
2022/03/20 05:13:37;;;;;;;19.88;11.77;;;2.80;99.90;;;;;;5094624;28;20073;-83
2022/03/20 05:16:21;;;;;;;18.83;11.70;;;2.20;99.90;;;;;;5093667;28;20039;-83
2022/03/20 05:19:04;;;;;;;;;;;2.20;99.90;;;;;;5093312;28;20082;-83
2022/03/20 05:21:49;;;;;;;24.55;11.68;;;2.10;99.90;;;;;;5093842;28;20003;-83
2022/03/20 05:24:34;;;;;;;21.23;12.63;;;2.30;99.90;;;;;;5094502;28;20097;-82
2022/03/20 05:27:18;;;;;;;19.98;12.75;;;2.10;99.90;;;;;;5093529;28;20047;-82
2022/03/20 05:30:05;;;;;;;;;;;2.10;99.90;;;;;;5094157;28;20089;-83
2022/03/20 05:32:50;;;;;;;19.07;12.20;;;2.10;99.90;;;;;;5093650;28;19999;-83
2022/03/20 05:35:34;;;;;;;19.67;12.60;;;2.10;99.90;;;;;;5107698;28;20063;-82
2022/03/20 05:38:18;;;;;;;20.75;12.98;;;2.10;99.90;;;;;;5094290;28;20067;-83
2022/03/20 05:44:06;;;;;;;19.05;12.18;;;2.40;99.90;;;;;;5092634;28;20135;-83
2022/03/20 05:46:52;;;;;;;22.40;14.30;;;2.10;99.90;;;;;;5078135;28;20035;-82
2022/03/20 05:49:36;;;;;;;23.20;13.05;;;2.40;99.90;;;;;;5092865;28;20039;-83
2022/03/20 05:52:21;;;;;;;23.97;14.17;;;2.10;99.90;;;;;;5078625;28;20070;-83
2022/03/20 05:55:06;;;;;;;20.47;13.37;;;2.80;99.90;;;;;;5092258;28;20042;-83
2022/03/20 05:58:02;;;;;;;20.40;12.47;;;2.10;99.90;;;;;;5092115;28;20396;-84
2022/03/20 06:00:46;;;;;;;20.67;13.33;;;2.10;99.90;;;;;;5108858;27;20130;-83
2022/03/20 06:03:31;;;;;;;27.67;12.90;;;2.20;99.90;;;;;;5092709;28;20089;-83
2022/03/20 06:06:16;;;;;;;23.43;14.27;;;2.60;99.90;;;;;;5092130;28;20051;-83
2022/03/20 06:09:00;;;;;;;20.88;13.65;;;2.10;99.90;;;;;;5091953;28;20039;-83
2022/03/20 06:11:45;;;;;;;27.83;15.20;;;2.20;99.90;;;;;;5093605;28;20031;-83
2022/03/20 06:14:29;;;;;;;20.52;13.43;;;2.50;99.90;;;;;;5093702;28;20083;-83
2022/03/20 06:17:14;;;;;;;24.33;13.27;;;2.80;99.90;;;;;;5077530;28;20062;-83
2022/03/20 06:20:00;;;;;;;21.02;13.60;;;2.30;99.90;;;;;;5077546;28;20043;-83
2022/03/20 06:22:45;;;;;;;22.77;13.40;;;2.30;99.90;;;;;;5092316;28;20061;-83
2022/03/20 06:25:29;;;;;;;22.55;13.43;;;2.60;99.90;;;;;;5106609;28;20071;-83
2022/03/20 06:28:12;;;;;;;;;;;3.30;99.90;;;;;;5093119;28;20039;-83
2022/03/20 06:30:57;;;;;;;17.58;11.63;;;2.40;99.90;;;;;;5092590;28;20391;-82
2022/03/20 06:33:46;;;;;;;22.88;15.02;;;2.80;99.90;;;;;;5092121;28;20446;-83
2022/03/20 06:36:31;;;;;;;24.65;13.93;;;2.60;99.90;;;;;;5092170;28;20085;-82
2022/03/20 06:39:15;;;;;;;24.33;14.20;;;2.90;99.90;;;;;;5091565;28;20059;-82
2022/03/20 06:42:00;;;;;;;23.03;14.30;;;3.10;99.90;;;;;;5076922;28;20051;-84
2022/03/20 06:44:44;;;;;;;23.67;13.40;;;2.40;99.90;;;;;;5092779;28;20408;-83
2022/03/20 06:47:28;;;;;;;;;;;2.40;99.90;;;;;;5093296;28;20038;-82
2022/03/20 06:50:13;;;;;;;24.48;15.68;;;2.50;99.90;;;;;;5095190;28;20347;-82
2022/03/20 06:53:02;;;;;;;23.67;13.82;;;2.50;99.90;;;;;;5091443;28;20039;-83
2022/03/20 06:55:46;;;;;;;24.60;14.63;;;2.50;99.90;;;;;;5106923;27;20101;-83
2022/03/20 06:58:30;;;;;;;23.83;14.50;;;2.60;99.90;;;;;;5091664;28;20055;-83
2022/03/20 07:01:15;;;;;;;24.05;14.05;;;2.60;99.90;;;;;;5091050;28;20051;-83
2022/03/20 07:03:59;;;;;;;;;;;2.70;99.90;;;;;;5091376;28;20054;-83
2022/03/20 07:06:43;;;;;;;24.60;15.52;;;2.70;99.90;;;;;;5092716;28;19965;-83
2022/03/20 07:09:27;;;;;;;26.30;15.85;;;2.80;99.90;;;;;;5091514;28;20039;-83
2022/03/20 07:12:12;;;;;;;;;;;2.80;99.90;;;;;;5092338;28;20035;-83
2022/03/20 07:14:57;;;;;;;24.10;14.35;;;2.90;99.90;;;;;;5092561;28;19930;-83
2022/03/20 07:17:41;;;;;;;25.50;14.30;;;2.90;99.90;;;;;;5090701;28;20115;-83
2022/03/20 07:20:26;;;;;;;23.65;13.98;;;3.00;99.90;;;;;;5092577;28;20043;-83
2022/03/20 07:23:10;;;;;;;;;;;3.20;99.90;;;;;;5076847;28;20123;-83
2022/03/20 07:32:06;;;;;;;27.00;14.32;;;3.60;99.90;;;;;;5104602;28;20043;-83
2022/03/20 07:34:51;;;;;;;24.70;13.15;;;4.20;99.90;;;;;;5104097;28;20054;-83
2022/03/20 07:37:35;;;;;;;22.58;14.75;;;4.70;99.90;;;;;;5103660;28;20039;-83
2022/03/20 07:40:21;;;;;;;24.55;15.52;;;5.20;99.90;;;;;;5118036;28;20047;-82
2022/03/20 07:43:05;;;;;;;25.40;15.60;;;5.60;99.90;;;;;;5104316;28;20046;-83
2022/03/20 07:45:50;;;;;;;22.20;13.73;;;6.30;99.90;;;;;;5083952;28;20131;-83
2022/03/20 07:48:35;;;;;;;24.55;15.05;;;6.10;99.90;;;;;;5084609;28;20043;-83
2022/03/20 07:51:21;;;;;;;22.08;13.82;;;6.60;99.90;;;;;;5082745;28;20058;-83
2022/03/20 07:54:05;;;;;;;22.05;13.35;;;6.80;99.90;;;;;;5083852;28;20856;-83
2022/03/20 07:56:49;;;;;;;;;;;7.20;99.30;;;;;;5085040;28;20071;-83
2022/03/20 07:59:34;;;;;;;21.70;14.55;;;7.10;98.00;;;;;;5083425;28;19922;-83
2022/03/20 08:02:18;;;;;;;23.10;14.40;;;7.50;98.30;;;;;;5083136;28;20089;-83
2022/03/20 08:05:03;;;;;;;24.10;15.35;;;7.40;97.50;;;;;;5082904;28;20121;-84
2022/03/20 08:07:47;;;;;;;24.38;14.30;;;7.20;96.70;;;;;;5084214;28;20186;-84
2022/03/20 08:10:31;;;;;;;;;;;6.60;95.70;;;;;;5069721;28;20101;-84
2022/03/20 08:13:15;;;;;;;22.02;14.20;;;6.20;94.90;;;;;;5098060;28;19918;-83
2022/03/20 08:16:03;;;;;;;;;;;6.00;96.50;;;;;;5104423;28;20078;-83
2022/03/20 08:18:47;;;;;;;23.67;15.15;;;6.00;96.80;;;;;;5100485;28;19954;-84
2022/03/20 08:21:34;;;;;;;20.98;14.20;;;5.80;98.00;;;;;;5102462;28;20123;-83
2022/03/20 08:24:19;;;;;;;23.65;14.80;;;5.80;98.20;;;;;;5111318;28;20414;-83
2022/03/20 08:27:04;;;;;;;20.77;14.93;;;5.90;98.30;;;;;;5111128;28;20038;-82
2022/03/20 08:29:48;;;;;;;23.35;15.10;;;6.10;98.50;;;;;;5113942;28;20039;-83
2022/03/20 08:32:32;;;;;;;26.95;15.50;;;7.20;97.80;;;;;;5115076;28;20046;-82
2022/03/20 08:35:18;;;;;;;23.63;15.18;;;6.90;96.70;;;;;;5114934;28;20072;-86
2022/03/20 08:38:03;;;;;;;26.50;15.82;;;7.30;95.50;;;;;;5115971;28;20035;-82
2022/03/20 08:40:47;;;;;;;24.45;15.38;;;7.50;92.70;;;;;;5113939;28;20042;-83
2022/03/20 08:43:32;;;;;;;28.80;17.45;;;7.30;93.30;;;;;;5114289;28;20085;-82
2022/03/20 08:46:17;;;;;;;23.13;14.27;;;7.10;91.30;;;;;;5108210;28;20541;-82
2022/03/20 08:49:05;;;;;;;21.58;14.20;;;6.90;93.60;;;;;;5095346;28;20086;-82
2022/03/20 08:51:50;;;;;;;24.55;15.32;;;7.00;93.40;;;;;;5094397;28;20045;-82
2022/03/20 08:54:34;;;;;;;23.40;15.98;;;6.70;93.10;;;;;;5094591;28;20166;-82
2022/03/20 08:57:19;;;;;;;;;;;6.80;93.70;;;;;;5096608;28;20047;-81
2022/03/20 09:00:04;;;;;;;22.65;14.82;;;7.60;93.40;;;;;;5108402;28;19919;-82
2022/03/20 09:02:50;;;;;;;25.27;15.65;;;7.10;92.00;;;;;;5111964;28;20046;-83
2022/03/20 09:05:34;;;;;;;27.88;16.83;;;7.20;92.20;;;;;;5115234;28;20096;-82
2022/03/20 09:08:18;;;;;;;24.08;15.10;;;7.30;91.70;;;;;;5098977;28;20414;-81
2022/03/20 09:11:03;;;;;;;;;;;7.40;91.40;;;;;;5128327;27;20224;-83
2022/03/20 09:13:47;;;;;;;24.00;15.02;;;7.30;90.90;;;;;;5115260;28;20060;-82
2022/03/20 09:19:36;;;;;;;24.75;15.80;;;7.10;92.20;;;;;;5114612;28;20035;-83
2022/03/20 09:22:21;;;;;;;23.98;14.20;;;7.20;91.30;;;;;;5113478;28;20085;-83
2022/03/20 09:25:07;;;;;;;26.55;16.05;;;7.30;91.50;;;;;;5142997;27;20533;-83
2022/03/20 09:27:52;;;;;;;28.80;16.73;;;7.40;90.40;;;;;;5099573;28;20043;-84
2022/03/20 09:30:38;;;;;;;24.05;15.30;;;7.60;91.50;;;;;;5085082;28;20066;-85
2022/03/20 09:33:25;;;;;;;26.58;15.95;;;8.20;90.50;;;;;;5114338;28;20101;-84
2022/03/20 09:36:10;;;;;;;26.98;16.10;;;8.10;89.20;;;;;;5114021;28;20552;-82
2022/03/20 09:38:54;;;;;;;23.85;15.98;;;9.00;88.00;;;;;;5113591;28;20038;-81
2022/03/20 09:41:41;;;;;;;25.85;17.65;;;8.30;87.80;;;;;;5112525;28;20050;-83
2022/03/20 09:44:26;;;;;;;24.42;17.05;;;8.50;88.20;;;;;;5113892;28;20066;-81
2022/03/20 09:47:12;;;;;;;27.25;17.15;;;8.50;88.20;;;;;;5142679;27;20038;-82
2022/03/20 09:49:57;;;;;;;22.77;15.55;;;8.50;85.10;;;;;;5113966;28;20035;-81
2022/03/20 09:52:42;;;;;;;30.65;17.75;;;8.50;86.60;;;;;;5112695;28;20050;-85
2022/03/20 09:55:26;;;;;;;27.10;16.52;;;8.60;86.40;;;;;;5111722;28;20043;-82
2022/03/20 09:58:11;;;;;;;25.35;17.13;;;8.70;86.90;;;;;;5112566;28;20035;-81
2022/03/20 10:00:56;;;;;;;28.90;16.85;;;8.80;85.50;;;;;;5112199;28;20066;-82
2022/03/20 10:03:40;;;;;;;27.30;16.35;;;8.90;84.50;;;;;;5111718;28;20505;-82
2022/03/20 10:06:24;;;;;;;25.63;17.40;;;9.10;83.60;;;;;;5110997;28;20051;-83
2022/03/20 10:09:09;;;;;;;;;;;9.10;81.50;;;;;;5113247;28;20038;-82
2022/03/20 10:11:57;;;;;;;27.45;17.60;;;9.10;80.60;;;;;;5106077;28;19915;-82
2022/03/20 10:14:45;;;;;;;27.45;17.58;;;9.10;81.30;;;;;;5091987;28;20043;-82
2022/03/20 10:17:30;;;;;;;28.40;17.48;;;9.20;79.40;;;;;;5093023;28;20055;-82
2022/03/20 10:20:20;;;;;;;25.25;16.67;;;9.20;78.30;;;;;;5106944;28;20546;-82
2022/03/20 10:23:25;;;;;;;27.98;18.08;;;9.30;78.60;;;;;;5093314;28;20120;-83
2022/03/20 10:26:12;;;;;;;27.15;18.13;;;9.40;78.50;;;;;;5111367;28;20120;-85
2022/03/20 10:28:56;;;;;;;25.48;17.02;;;9.50;76.50;;;;;;5112208;28;20111;-80
2022/03/20 10:31:49;;;;;;;28.17;18.70;;;9.60;75.80;;;;;;5110470;28;20639;-83
2022/03/20 10:34:49;;;;;;;28.80;18.53;;;9.70;74.60;;;;;;5111671;28;20043;-85
2022/03/20 10:37:55;;;;;;;26.80;17.70;;;9.70;72.30;;;;;;5089950;28;20078;-82
2022/03/20 10:40:45;;;;;;;25.45;17.58;;;9.70;72.80;;;;;;5092019;28;20516;-81
2022/03/20 10:43:29;;;;;;;31.05;18.50;;;9.90;72.20;;;;;;5092612;28;20131;-82
2022/03/20 10:46:21;;;;;;;;;;;9.90;73.50;;;;;;5092502;28;20136;-82
2022/03/20 10:49:05;;;;;;;26.25;17.88;;;10.00;72.30;;;;;;5092111;28;20016;-81
2022/03/20 10:52:04;;;;;;;28.48;18.20;;;10.10;73.40;;;;;;5092944;28;20070;-81
2022/03/20 10:54:53;;;;;;;28.73;18.48;;;10.20;71.00;;;;;;5091618;28;20097;-81
2022/03/20 10:57:39;;;;;;;24.40;17.17;;;10.30;71.80;;;;;;5092328;28;20042;-81
2022/03/20 11:00:24;;;;;;;27.80;18.30;;;10.40;71.50;;;;;;5091754;28;20101;-83
2022/03/20 11:03:08;;;;;;;25.50;17.92;;;10.50;71.30;;;;;;5091857;28;20077;-81
2022/03/20 11:05:54;;;;;;;29.70;19.05;;;10.60;70.50;;;;;;5091522;28;20541;-82
2022/03/20 11:08:38;;;;;;;26.70;18.25;;;10.70;67.80;;;;;;5120040;27;20043;-83
2022/03/20 11:11:24;;;;;;;28.50;19.42;;;10.60;68.00;;;;;;5091559;28;20039;-81
2022/03/20 11:14:10;;;;;;;25.45;17.08;;;10.50;65.20;;;;;;5092593;28;20043;-81
2022/03/20 11:17:05;;;;;;;33.67;19.98;;;10.50;67.60;;;;;;5092734;28;20055;-81
2022/03/20 11:19:52;;;;;;;25.20;17.50;;;10.60;64.80;;;;;;5090916;28;20093;-81
2022/03/20 11:22:42;;;;;;;32.90;19.08;;;10.70;66.60;;;;;;5092282;28;20419;-83
2022/03/20 11:25:26;;;;;;;31.23;19.63;;;10.80;67.10;;;;;;5092425;28;20046;-82
2022/03/20 11:28:15;;;;;;;28.77;20.08;;;10.90;66.30;;;;;;5091407;28;20047;-82
2022/03/20 11:30:59;;;;;;;25.33;18.92;;;11.00;66.40;;;;;;5092408;28;20043;-82
2022/03/20 11:33:45;;;;;;;28.73;19.17;;;11.00;66.80;;;;;;5119647;27;20071;-81
2022/03/20 11:36:29;;;;;;;27.98;19.35;;;11.20;65.00;;;;;;5076834;28;20042;-83
2022/03/20 11:39:15;;;;;;;30.15;19.38;;;11.20;64.30;;;;;;5092260;28;20164;-82
2022/03/20 11:42:28;;;;;;;25.90;19.20;;;11.20;64.70;;;;;;5092431;28;20042;-81
2022/03/20 11:45:20;;;;;;;26.50;18.20;;;11.30;63.80;;;;;;5091085;28;20129;-81
2022/03/20 11:48:15;;;;;;;25.27;18.00;;;11.40;64.40;;;;;;5092242;28;20099;-82
2022/03/20 11:51:00;;;;;;;25.73;18.52;;;11.40;61.70;;;;;;5091240;28;20073;-82
2022/03/20 11:53:44;;;;;;;28.67;18.20;;;11.40;62.60;;;;;;5119501;28;20038;-82
2022/03/20 11:56:30;;;;;;;29.83;19.50;;;11.40;62.80;;;;;;5091278;28;20038;-83
2022/03/20 11:59:46;;;;;;;29.17;19.67;;;11.70;62.10;;;;;;5092107;28;20073;-82
2022/03/20 12:02:33;;;;;;;26.40;18.95;;;11.50;61.30;;;;;;5091042;28;20400;-83
2022/03/20 12:05:20;;;;;;;27.48;17.92;;;11.60;62.50;;;;;;5094786;28;20510;-80
2022/03/20 12:08:38;;;;;;;29.67;19.33;;;11.70;62.80;;;;;;5096195;28;20047;-81
2022/03/20 12:12:14;;;;;;;30.75;18.77;;;11.80;62.90;;;;;;5095121;28;20519;-83
2022/03/20 12:15:06;;;;;;;29.80;18.67;;;12.00;61.80;;;;;;5080969;27;20043;-83
2022/03/20 12:18:00;;;;;;;31.55;20.10;;;11.90;61.00;;;;;;5095486;28;20173;-81
2022/03/20 12:20:52;;;;;;;27.45;19.63;;;11.80;61.80;;;;;;5094469;28;20073;-82
2022/03/20 12:23:39;;;;;;;24.17;18.35;;;11.90;61.80;;;;;;5094327;28;20544;-82
2022/03/20 12:26:34;;;;;;;27.98;19.40;;;12.00;61.00;;;;;;5095960;28;20043;-82
2022/03/20 12:29:33;;;;;;;26.83;18.92;;;12.00;60.30;;;;;;5081490;28;20035;-82
2022/03/20 12:32:21;;;;;;;27.98;19.83;;;11.90;60.00;;;;;;5094855;28;20126;-81
2022/03/20 12:35:09;;;;;;;32.30;20.33;;;12.10;61.00;;;;;;5094821;28;20047;-81
2022/03/20 12:37:55;;;;;;;28.83;20.58;;;12.20;60.10;;;;;;5094117;28;20039;-81
2022/03/20 12:40:40;;;;;;;30.63;18.40;;;12.20;59.00;;;;;;5094033;28;20035;-82
2022/03/20 12:43:24;;;;;;;27.08;18.55;;;12.20;59.70;;;;;;5080397;28;20078;-82
2022/03/20 12:46:10;;;;;;;25.08;18.40;;;12.30;59.00;;;;;;5095557;28;20177;-81
2022/03/20 12:48:56;;;;;;;30.10;19.40;;;12.20;59.10;;;;;;5093788;28;20043;-81
2022/03/20 12:51:41;;;;;;;27.55;19.65;;;12.20;59.20;;;;;;5093832;28;20043;-83
2022/03/20 12:54:25;;;;;;;27.88;19.40;;;12.20;59.40;;;;;;5123323;27;20043;-82
2022/03/20 12:57:09;;;;;;;25.15;18.75;;;12.30;59.10;;;;;;5094102;28;20046;-81
2022/03/20 13:00:10;;;;;;;24.70;18.52;;;12.30;58.10;;;;;;5093411;28;20552;-81
2022/03/20 13:03:09;;;;;;;28.75;19.02;;;12.00;57.60;;;;;;5094455;28;20043;-81
2022/03/20 13:05:58;;;;;;;31.23;19.77;;;11.70;59.10;;;;;;5094112;28;20043;-81
2022/03/20 13:08:46;;;;;;;28.92;18.92;;;11.60;59.90;;;;;;5094414;28;20034;-80
2022/03/20 13:11:51;;;;;;;26.92;19.73;;;11.60;60.40;;;;;;5094070;28;20097;-81
2022/03/20 13:14:48;;;;;;;31.50;19.55;;;11.60;60.40;;;;;;5071053;28;20047;-81
2022/03/20 13:17:34;;;;;;;30.48;19.17;;;11.70;60.00;;;;;;5094033;28;20494;-82
2022/03/20 13:20:21;;;;;;;28.67;20.08;;;11.90;59.60;;;;;;5094788;28;20170;-81
2022/03/20 13:23:10;;;;;;;27.15;19.42;;;12.20;59.20;;;;;;5094373;28;20074;-81
2022/03/20 13:26:00;;;;;;;28.50;19.67;;;12.40;58.50;;;;;;5105552;28;20070;-83
2022/03/20 13:28:46;;;;;;;26.02;18.63;;;12.40;58.40;;;;;;5114109;28;20043;-82
2022/03/20 13:31:30;;;;;;;27.08;18.70;;;12.30;58.10;;;;;;5114122;28;20120;-82
2022/03/20 13:34:17;;;;;;;;;;;12.10;58.70;;;;;;5115381;28;20046;-81
2022/03/20 13:37:10;;;;;;;27.63;19.10;;;11.90;58.00;;;;;;5099286;28;19922;-83
2022/03/20 13:39:55;;;;;;;28.42;18.98;;;11.90;59.30;;;;;;5099262;28;20104;-81
2022/03/20 13:42:41;;;;;;;37.72;22.23;;;11.80;59.00;;;;;;5099536;28;20082;-81
2022/03/20 13:45:34;;;;;;;27.38;19.85;;;11.70;58.70;;;;;;5114365;28;20070;-82
2022/03/20 13:48:19;;;;;;;28.77;19.65;;;11.60;59.50;;;;;;5114662;28;20123;-81
2022/03/20 13:51:07;;;;;;;33.25;20.85;;;11.60;60.10;;;;;;5114367;28;20043;-81
2022/03/20 13:54:15;;;;;;;28.05;19.13;;;11.60;60.10;;;;;;5142488;27;20038;-82
2022/03/20 13:57:07;;;;;;;27.10;19.63;;;11.70;60.40;;;;;;5111008;28;20497;-82
2022/03/20 13:59:53;;;;;;;28.45;19.98;;;11.70;60.00;;;;;;5113061;28;20034;-84
2022/03/20 14:02:44;;;;;;;28.67;19.58;;;11.70;60.00;;;;;;5113894;28;20043;-82
2022/03/20 14:05:29;;;;;;;29.15;18.98;;;11.70;59.70;;;;;;5115053;28;20167;-82
2022/03/20 14:08:15;;;;;;;32.85;20.77;;;11.60;60.00;;;;;;5112944;28;20407;-81
2022/03/20 14:11:04;;;;;;;27.77;20.00;;;11.70;60.30;;;;;;5099267;28;20571;-81
2022/03/20 14:13:49;;;;;;;27.25;18.85;;;11.70;60.60;;;;;;5099318;28;20050;-86
2022/03/20 14:16:35;;;;;;;27.42;19.73;;;11.90;60.90;;;;;;5113258;28;20043;-80
2022/03/20 14:19:19;;;;;;;27.95;19.42;;;11.90;60.40;;;;;;5113933;28;20406;-81
2022/03/20 14:22:04;;;;;;;;;;;11.90;60.50;;;;;;5113308;28;20046;-80
2022/03/20 14:24:52;;;;;;;29.10;18.83;;;11.90;60.40;;;;;;5113889;28;20024;-82
2022/03/20 14:27:36;;;;;;;30.38;19.67;;;11.80;60.30;;;;;;5127597;27;20038;-81
2022/03/20 14:39:48;;;;;;;29.05;19.65;;;11.60;60.80;;;;;;5112564;28;20204;-83
2022/03/20 14:42:37;;;;;;;27.20;18.15;;;11.70;61.90;;;;;;5101837;28;20066;-82
2022/03/20 14:45:22;;;;;;;27.00;19.15;;;11.70;61.30;;;;;;5103747;28;20097;-83
2022/03/20 14:48:12;;;;;;;30.35;21.00;;;11.70;61.30;;;;;;5104124;28;20078;-82
2022/03/20 14:50:58;;;;;;;26.33;19.63;;;11.70;60.80;;;;;;5100991;28;20061;-83
2022/03/20 14:53:42;;;;;;;26.15;19.00;;;11.60;60.80;;;;;;5102682;28;20050;-80
2022/03/20 14:56:26;;;;;;;;;;;11.70;61.20;;;;;;5109387;28;20034;-81
2022/03/20 14:59:12;;;;;;;27.65;18.27;;;11.70;61.40;;;;;;5108642;28;19954;-82
2022/03/20 15:01:56;;;;;;;27.63;18.73;;;11.60;61.00;;;;;;5125414;27;20495;-81
2022/03/20 15:04:41;;;;;;;25.58;18.95;;;11.70;61.20;;;;;;5112193;28;20097;-81
2022/03/20 15:07:25;;;;;;;27.77;18.65;;;11.60;61.30;;;;;;5107462;28;20518;-80